sensor_id;sensor_type;location;lat;lon;timestamp;temperature;humidity
13808;DHT22;40769;51.512;5.494;2023-04-06T00:00:33;6.20;99.90
13808;DHT22;40769;51.512;5.494;2023-04-06T00:02:58;6.20;99.90
13808;DHT22;40769;51.512;5.494;2023-04-06T00:05:24;6.20;99.90
13808;DHT22;40769;51.512;5.494;2023-04-06T00:07:50;6.30;99.90
13808;DHT22;40769;51.512;5.494;2023-04-06T00:10:16;6.30;99.90
13808;DHT22;40769;51.512;5.494;2023-04-06T00:12:42;6.20;99.90
13808;DHT22;40769;51.512;5.494;2023-04-06T00:15:08;6.00;99.90
13808;DHT22;40769;51.512;5.494;2023-04-06T00:17:34;5.90;99.90
13808;DHT22;40769;51.512;5.494;2023-04-06T00:19:59;5.80;99.90
13808;DHT22;40769;51.512;5.494;2023-04-06T00:22:25;5.90;99.90
13808;DHT22;40769;51.512;5.494;2023-04-06T00:24:51;5.80;99.90
13808;DHT22;40769;51.512;5.494;2023-04-06T00:27:17;5.90;99.90
13808;DHT22;40769;51.512;5.494;2023-04-06T00:29:43;6.00;99.90
13808;DHT22;40769;51.512;5.494;2023-04-06T00:32:09;6.00;99.90
13808;DHT22;40769;51.512;5.494;2023-04-06T00:34:35;6.10;99.90
13808;DHT22;40769;51.512;5.494;2023-04-06T00:37:01;6.20;99.90
13808;DHT22;40769;51.512;5.494;2023-04-06T00:39:26;6.20;99.90
13808;DHT22;40769;51.512;5.494;2023-04-06T00:41:52;6.50;99.90
13808;DHT22;40769;51.512;5.494;2023-04-06T00:44:19;6.30;99.90
13808;DHT22;40769;51.512;5.494;2023-04-06T00:46:45;6.30;99.90
13808;DHT22;40769;51.512;5.494;2023-04-06T00:49:11;6.10;99.90
13808;DHT22;40769;51.512;5.494;2023-04-06T00:51:36;6.00;99.90
13808;DHT22;40769;51.512;5.494;2023-04-06T00:54:02;5.90;99.90
13808;DHT22;40769;51.512;5.494;2023-04-06T00:56:28;5.80;99.90
13808;DHT22;40769;51.512;5.494;2023-04-06T00:58:53;5.90;99.90
13808;DHT22;40769;51.512;5.494;2023-04-06T01:01:19;5.90;99.90
13808;DHT22;40769;51.512;5.494;2023-04-06T01:03:45;5.90;99.90
13808;DHT22;40769;51.512;5.494;2023-04-06T01:06:14;6.00;99.90
13808;DHT22;40769;51.512;5.494;2023-04-06T01:08:40;6.10;99.90
13808;DHT22;40769;51.512;5.494;2023-04-06T01:11:06;6.10;99.90
13808;DHT22;40769;51.512;5.494;2023-04-06T01:13:31;6.10;99.90
13808;DHT22;40769;51.512;5.494;2023-04-06T01:15:57;6.20;99.90
13808;DHT22;40769;51.512;5.494;2023-04-06T01:18:29;6.20;99.90
13808;DHT22;40769;51.512;5.494;2023-04-06T01:20:55;6.30;99.90
13808;DHT22;40769;51.512;5.494;2023-04-06T01:23:21;6.20;99.90
13808;DHT22;40769;51.512;5.494;2023-04-06T01:25:47;6.10;99.90
13808;DHT22;40769;51.512;5.494;2023-04-06T01:28:12;5.90;99.90
13808;DHT22;40769;51.512;5.494;2023-04-06T01:30:38;5.80;99.90
13808;DHT22;40769;51.512;5.494;2023-04-06T01:33:03;5.80;99.90
13808;DHT22;40769;51.512;5.494;2023-04-06T01:35:30;5.80;99.90
13808;DHT22;40769;51.512;5.494;2023-04-06T01:37:56;5.90;99.90
13808;DHT22;40769;51.512;5.494;2023-04-06T01:40:22;5.90;99.90
13808;DHT22;40769;51.512;5.494;2023-04-06T01:42:47;6.10;99.90
13808;DHT22;40769;51.512;5.494;2023-04-06T01:45:13;6.20;99.90
13808;DHT22;40769;51.512;5.494;2023-04-06T01:47:38;6.30;99.90
13808;DHT22;40769;51.512;5.494;2023-04-06T01:50:05;6.40;99.90
13808;DHT22;40769;51.512;5.494;2023-04-06T01:52:32;6.50;99.90
13808;DHT22;40769;51.512;5.494;2023-04-06T01:54:58;6.50;99.90
13808;DHT22;40769;51.512;5.494;2023-04-06T01:57:24;6.40;99.90
13808;DHT22;40769;51.512;5.494;2023-04-06T01:59:50;6.30;99.90
13808;DHT22;40769;51.512;5.494;2023-04-06T02:02:17;6.20;99.90
13808;DHT22;40769;51.512;5.494;2023-04-06T02:04:42;6.20;99.90
13808;DHT22;40769;51.512;5.494;2023-04-06T02:07:08;6.30;99.90
13808;DHT22;40769;51.512;5.494;2023-04-06T02:09:34;6.40;99.90
13808;DHT22;40769;51.512;5.494;2023-04-06T02:12:00;6.50;99.90
13808;DHT22;40769;51.512;5.494;2023-04-06T02:14:27;6.60;99.90
13808;DHT22;40769;51.512;5.494;2023-04-06T02:16:53;6.70;99.90
13808;DHT22;40769;51.512;5.494;2023-04-06T02:19:18;6.80;99.90
13808;DHT22;40769;51.512;5.494;2023-04-06T02:21:44;6.80;99.90
13808;DHT22;40769;51.512;5.494;2023-04-06T02:24:10;7.20;99.90
13808;DHT22;40769;51.512;5.494;2023-04-06T02:26:36;7.00;99.90
13808;DHT22;40769;51.512;5.494;2023-04-06T02:29:01;7.00;99.90
13808;DHT22;40769;51.512;5.494;2023-04-06T02:31:27;7.00;99.90
13808;DHT22;40769;51.512;5.494;2023-04-06T02:33:53;6.90;99.90
13808;DHT22;40769;51.512;5.494;2023-04-06T02:36:19;6.80;99.90
13808;DHT22;40769;51.512;5.494;2023-04-06T02:38:45;6.70;99.90
13808;DHT22;40769;51.512;5.494;2023-04-06T02:41:10;6.10;99.90
13808;DHT22;40769;51.512;5.494;2023-04-06T02:43:36;6.90;99.90
13808;DHT22;40769;51.512;5.494;2023-04-06T02:46:02;6.80;99.90
13808;DHT22;40769;51.512;5.494;2023-04-06T02:48:27;6.90;99.90
13808;DHT22;40769;51.512;5.494;2023-04-06T02:50:53;7.00;99.90
13808;DHT22;40769;51.512;5.494;2023-04-06T02:53:18;7.10;99.90
13808;DHT22;40769;51.512;5.494;2023-04-06T02:55:44;7.20;99.90
13808;DHT22;40769;51.512;5.494;2023-04-06T02:58:09;7.30;99.90
13808;DHT22;40769;51.512;5.494;2023-04-06T03:00:37;7.30;99.90
13808;DHT22;40769;51.512;5.494;2023-04-06T03:03:02;7.40;99.90
13808;DHT22;40769;51.512;5.494;2023-04-06T03:05:28;7.50;99.90
13808;DHT22;40769;51.512;5.494;2023-04-06T03:07:54;7.70;99.90
13808;DHT22;40769;51.512;5.494;2023-04-06T03:10:19;7.70;99.90
13808;DHT22;40769;51.512;5.494;2023-04-06T03:12:45;7.20;99.90
13808;DHT22;40769;51.512;5.494;2023-04-06T03:15:10;7.10;99.90
13808;DHT22;40769;51.512;5.494;2023-04-06T03:17:36;7.00;99.90
13808;DHT22;40769;51.512;5.494;2023-04-06T03:20:03;7.10;99.90
13808;DHT22;40769;51.512;5.494;2023-04-06T03:22:29;7.10;99.90
13808;DHT22;40769;51.512;5.494;2023-04-06T03:24:54;7.20;99.90
13808;DHT22;40769;51.512;5.494;2023-04-06T03:27:20;7.30;99.90
13808;DHT22;40769;51.512;5.494;2023-04-06T03:29:46;7.40;99.90
13808;DHT22;40769;51.512;5.494;2023-04-06T03:32:11;7.50;99.90
13808;DHT22;40769;51.512;5.494;2023-04-06T03:34:38;7.60;99.90
13808;DHT22;40769;51.512;5.494;2023-04-06T03:37:04;7.60;99.90
13808;DHT22;40769;51.512;5.494;2023-04-06T03:39:30;7.70;99.90
13808;DHT22;40769;51.512;5.494;2023-04-06T03:41:55;7.70;99.90
13808;DHT22;40769;51.512;5.494;2023-04-06T03:44:21;7.70;99.90
13808;DHT22;40769;51.512;5.494;2023-04-06T03:46:47;7.60;99.90
13808;DHT22;40769;51.512;5.494;2023-04-06T03:49:12;7.50;99.90
13808;DHT22;40769;51.512;5.494;2023-04-06T03:51:38;7.30;99.90
13808;DHT22;40769;51.512;5.494;2023-04-06T03:54:03;7.30;99.90
13808;DHT22;40769;51.512;5.494;2023-04-06T03:56:29;7.30;99.90
13808;DHT22;40769;51.512;5.494;2023-04-06T03:58:55;7.30;99.90
13808;DHT22;40769;51.512;5.494;2023-04-06T04:01:21;7.30;99.90
13808;DHT22;40769;51.512;5.494;2023-04-06T04:03:47;7.40;99.90
13808;DHT22;40769;51.512;5.494;2023-04-06T04:06:12;7.50;99.90
13808;DHT22;40769;51.512;5.494;2023-04-06T04:08:38;7.50;99.90
13808;DHT22;40769;51.512;5.494;2023-04-06T04:11:03;7.60;99.90
13808;DHT22;40769;51.512;5.494;2023-04-06T04:13:29;7.70;99.90
13808;DHT22;40769;51.512;5.494;2023-04-06T04:15:55;7.70;99.90
13808;DHT22;40769;51.512;5.494;2023-04-06T04:18:21;7.80;99.90
13808;DHT22;40769;51.512;5.494;2023-04-06T04:20:47;7.70;99.90
13808;DHT22;40769;51.512;5.494;2023-04-06T04:23:12;7.60;99.90
13808;DHT22;40769;51.512;5.494;2023-04-06T04:25:38;7.40;99.90
13808;DHT22;40769;51.512;5.494;2023-04-06T04:28:04;7.30;99.90
13808;DHT22;40769;51.512;5.494;2023-04-06T04:30:29;7.20;99.90
13808;DHT22;40769;51.512;5.494;2023-04-06T04:32:55;7.20;99.90
13808;DHT22;40769;51.512;5.494;2023-04-06T04:35:20;7.20;99.90
13808;DHT22;40769;51.512;5.494;2023-04-06T04:37:46;7.30;99.90
13808;DHT22;40769;51.512;5.494;2023-04-06T04:40:12;7.30;99.90
13808;DHT22;40769;51.512;5.494;2023-04-06T04:42:37;7.40;99.90
13808;DHT22;40769;51.512;5.494;2023-04-06T04:45:03;7.50;99.90
13808;DHT22;40769;51.512;5.494;2023-04-06T04:47:29;7.50;99.90
13808;DHT22;40769;51.512;5.494;2023-04-06T04:49:54;7.60;99.90
13808;DHT22;40769;51.512;5.494;2023-04-06T04:52:20;8.00;99.90
13808;DHT22;40769;51.512;5.494;2023-04-06T04:54:46;7.80;99.90
13808;DHT22;40769;51.512;5.494;2023-04-06T04:57:12;7.40;99.90
13808;DHT22;40769;51.512;5.494;2023-04-06T04:59:38;7.30;99.90
13808;DHT22;40769;51.512;5.494;2023-04-06T05:02:03;7.20;99.90
13808;DHT22;40769;51.512;5.494;2023-04-06T05:04:29;7.30;99.90
13808;DHT22;40769;51.512;5.494;2023-04-06T05:07:05;7.20;99.90
13808;DHT22;40769;51.512;5.494;2023-04-06T05:09:31;7.20;99.90
13808;DHT22;40769;51.512;5.494;2023-04-06T05:11:58;7.30;99.90
13808;DHT22;40769;51.512;5.494;2023-04-06T05:14:23;7.30;99.90
13808;DHT22;40769;51.512;5.494;2023-04-06T05:16:49;7.40;99.90
13808;DHT22;40769;51.512;5.494;2023-04-06T05:19:18;7.50;99.90
13808;DHT22;40769;51.512;5.494;2023-04-06T05:21:44;7.20;99.90
13808;DHT22;40769;51.512;5.494;2023-04-06T05:24:09;7.60;99.90
13808;DHT22;40769;51.512;5.494;2023-04-06T05:26:35;7.50;99.90
13808;DHT22;40769;51.512;5.494;2023-04-06T05:29:01;7.40;99.90
13808;DHT22;40769;51.512;5.494;2023-04-06T05:31:27;7.30;99.90
13808;DHT22;40769;51.512;5.494;2023-04-06T05:33:53;7.30;99.90
13808;DHT22;40769;51.512;5.494;2023-04-06T05:36:18;7.30;99.90
13808;DHT22;40769;51.512;5.494;2023-04-06T05:38:44;7.40;99.90
13808;DHT22;40769;51.512;5.494;2023-04-06T05:41:10;7.50;99.90
13808;DHT22;40769;51.512;5.494;2023-04-06T05:43:36;7.60;99.90
13808;DHT22;40769;51.512;5.494;2023-04-06T05:46:02;7.60;99.90
13808;DHT22;40769;51.512;5.494;2023-04-06T05:48:28;7.70;99.90
13808;DHT22;40769;51.512;5.494;2023-04-06T05:50:54;7.80;99.90
13808;DHT22;40769;51.512;5.494;2023-04-06T05:53:20;7.90;99.90
13808;DHT22;40769;51.512;5.494;2023-04-06T05:55:46;7.90;99.90
13808;DHT22;40769;51.512;5.494;2023-04-06T05:58:12;7.90;99.90
13808;DHT22;40769;51.512;5.494;2023-04-06T06:00:38;7.80;99.90
13808;DHT22;40769;51.512;5.494;2023-04-06T06:03:04;7.70;99.90
13808;DHT22;40769;51.512;5.494;2023-04-06T06:05:31;7.90;99.90
13808;DHT22;40769;51.512;5.494;2023-04-06T06:07:56;7.60;99.90
13808;DHT22;40769;51.512;5.494;2023-04-06T06:10:22;7.70;99.90
13808;DHT22;40769;51.512;5.494;2023-04-06T06:12:48;7.70;99.90
13808;DHT22;40769;51.512;5.494;2023-04-06T06:15:13;7.80;99.90
13808;DHT22;40769;51.512;5.494;2023-04-06T06:17:39;7.90;99.90
13808;DHT22;40769;51.512;5.494;2023-04-06T06:20:08;8.00;99.90
13808;DHT22;40769;51.512;5.494;2023-04-06T06:22:34;8.10;99.90
13808;DHT22;40769;51.512;5.494;2023-04-06T06:24:59;8.20;99.90
13808;DHT22;40769;51.512;5.494;2023-04-06T06:27:25;8.70;99.90
13808;DHT22;40769;51.512;5.494;2023-04-06T06:29:51;8.40;99.90
13808;DHT22;40769;51.512;5.494;2023-04-06T06:32:17;8.80;99.90
13808;DHT22;40769;51.512;5.494;2023-04-06T06:34:43;8.60;99.90
13808;DHT22;40769;51.512;5.494;2023-04-06T06:37:08;8.80;99.90
13808;DHT22;40769;51.512;5.494;2023-04-06T06:39:34;8.90;99.90
13808;DHT22;40769;51.512;5.494;2023-04-06T06:42:00;9.10;99.90
13808;DHT22;40769;51.512;5.494;2023-04-06T06:44:26;9.20;99.90
13808;DHT22;40769;51.512;5.494;2023-04-06T06:46:52;9.30;99.90
13808;DHT22;40769;51.512;5.494;2023-04-06T06:49:18;9.40;99.90
13808;DHT22;40769;51.512;5.494;2023-04-06T06:51:44;9.40;99.90
13808;DHT22;40769;51.512;5.494;2023-04-06T06:54:11;9.30;99.90
13808;DHT22;40769;51.512;5.494;2023-04-06T06:56:38;9.30;99.90
13808;DHT22;40769;51.512;5.494;2023-04-06T06:59:04;9.50;99.90
13808;DHT22;40769;51.512;5.494;2023-04-06T07:01:32;9.40;99.90
13808;DHT22;40769;51.512;5.494;2023-04-06T07:03:58;9.40;99.90
13808;DHT22;40769;51.512;5.494;2023-04-06T07:06:24;9.40;99.90
13808;DHT22;40769;51.512;5.494;2023-04-06T07:08:50;9.50;99.90
13808;DHT22;40769;51.512;5.494;2023-04-06T07:11:16;9.60;99.90
13808;DHT22;40769;51.512;5.494;2023-04-06T07:13:42;10.80;99.90
13808;DHT22;40769;51.512;5.494;2023-04-06T07:16:08;9.80;99.90
13808;DHT22;40769;51.512;5.494;2023-04-06T07:18:33;9.90;99.90
13808;DHT22;40769;51.512;5.494;2023-04-06T07:20:59;10.00;99.90
13808;DHT22;40769;51.512;5.494;2023-04-06T07:23:25;10.00;99.90
13808;DHT22;40769;51.512;5.494;2023-04-06T07:25:51;10.10;99.90
13808;DHT22;40769;51.512;5.494;2023-04-06T07:28:18;10.20;99.90
13808;DHT22;40769;51.512;5.494;2023-04-06T07:30:44;10.30;99.90
13808;DHT22;40769;51.512;5.494;2023-04-06T07:33:10;10.30;99.90
13808;DHT22;40769;51.512;5.494;2023-04-06T07:35:36;10.40;99.90
13808;DHT22;40769;51.512;5.494;2023-04-06T07:38:02;10.40;99.90
13808;DHT22;40769;51.512;5.494;2023-04-06T07:40:31;10.50;99.90
13808;DHT22;40769;51.512;5.494;2023-04-06T07:42:58;10.60;99.90
13808;DHT22;40769;51.512;5.494;2023-04-06T07:45:23;10.70;99.90
13808;DHT22;40769;51.512;5.494;2023-04-06T07:47:49;10.80;99.90
13808;DHT22;40769;51.512;5.494;2023-04-06T07:50:15;11.30;99.90
13808;DHT22;40769;51.512;5.494;2023-04-06T07:52:41;10.90;99.90
13808;DHT22;40769;51.512;5.494;2023-04-06T07:55:07;11.00;99.90
13808;DHT22;40769;51.512;5.494;2023-04-06T07:57:33;11.10;99.90
13808;DHT22;40769;51.512;5.494;2023-04-06T07:59:58;11.20;99.90
13808;DHT22;40769;51.512;5.494;2023-04-06T08:02:24;11.30;99.90
13808;DHT22;40769;51.512;5.494;2023-04-06T08:04:50;11.40;99.90
13808;DHT22;40769;51.512;5.494;2023-04-06T08:07:15;11.50;99.90
13808;DHT22;40769;51.512;5.494;2023-04-06T08:09:41;11.60;99.90
13808;DHT22;40769;51.512;5.494;2023-04-06T08:12:06;11.60;99.90
13808;DHT22;40769;51.512;5.494;2023-04-06T08:14:32;11.70;99.90
13808;DHT22;40769;51.512;5.494;2023-04-06T08:16:58;11.80;99.90
13808;DHT22;40769;51.512;5.494;2023-04-06T08:19:23;11.90;99.90
13808;DHT22;40769;51.512;5.494;2023-04-06T08:21:49;12.00;99.90
13808;DHT22;40769;51.512;5.494;2023-04-06T08:24:14;12.00;99.90
13808;DHT22;40769;51.512;5.494;2023-04-06T08:26:40;12.00;99.90
13808;DHT22;40769;51.512;5.494;2023-04-06T08:29:06;11.90;99.90
13808;DHT22;40769;51.512;5.494;2023-04-06T08:31:35;11.90;99.90
13808;DHT22;40769;51.512;5.494;2023-04-06T08:34:03;11.90;99.90
13808;DHT22;40769;51.512;5.494;2023-04-06T08:36:28;12.00;99.90
13808;DHT22;40769;51.512;5.494;2023-04-06T08:38:54;12.00;99.90
13808;DHT22;40769;51.512;5.494;2023-04-06T08:41:20;12.20;99.90
13808;DHT22;40769;51.512;5.494;2023-04-06T08:43:53;12.30;99.90
13808;DHT22;40769;51.512;5.494;2023-04-06T08:46:21;12.40;99.90
13808;DHT22;40769;51.512;5.494;2023-04-06T08:48:47;12.50;99.90
13808;DHT22;40769;51.512;5.494;2023-04-06T08:51:15;12.60;99.90
13808;DHT22;40769;51.512;5.494;2023-04-06T08:53:41;12.70;99.90
13808;DHT22;40769;51.512;5.494;2023-04-06T08:56:07;12.80;99.90
13808;DHT22;40769;51.512;5.494;2023-04-06T08:58:39;12.80;99.90
13808;DHT22;40769;51.512;5.494;2023-04-06T09:01:11;13.10;99.90
13808;DHT22;40769;51.512;5.494;2023-04-06T09:03:40;13.00;99.90
13808;DHT22;40769;51.512;5.494;2023-04-06T09:06:06;13.10;99.90
13808;DHT22;40769;51.512;5.494;2023-04-06T09:08:33;13.20;99.90
13808;DHT22;40769;51.512;5.494;2023-04-06T09:11:01;13.20;99.90
13808;DHT22;40769;51.512;5.494;2023-04-06T09:13:27;13.30;99.90
13808;DHT22;40769;51.512;5.494;2023-04-06T09:16:03;13.50;99.90
13808;DHT22;40769;51.512;5.494;2023-04-06T09:18:30;13.60;99.90
13808;DHT22;40769;51.512;5.494;2023-04-06T09:21:03;13.60;99.90
13808;DHT22;40769;51.512;5.494;2023-04-06T09:23:29;13.80;99.90
13808;DHT22;40769;51.512;5.494;2023-04-06T09:26:15;14.00;99.90
13808;DHT22;40769;51.512;5.494;2023-04-06T09:28:54;14.00;99.90
13808;DHT22;40769;51.512;5.494;2023-04-06T09:31:25;14.10;99.90
13808;DHT22;40769;51.512;5.494;2023-04-06T09:33:52;14.20;99.90
13808;DHT22;40769;51.512;5.494;2023-04-06T09:36:18;14.30;99.90
13808;DHT22;40769;51.512;5.494;2023-04-06T09:38:56;14.30;99.90
13808;DHT22;40769;51.512;5.494;2023-04-06T09:41:27;14.30;99.90
13808;DHT22;40769;51.512;5.494;2023-04-06T09:44:11;14.30;99.90
13808;DHT22;40769;51.512;5.494;2023-04-06T09:46:41;14.30;99.90
13808;DHT22;40769;51.512;5.494;2023-04-06T09:49:08;14.30;99.90
13808;DHT22;40769;51.512;5.494;2023-04-06T09:51:39;14.20;99.90
13808;DHT22;40769;51.512;5.494;2023-04-06T09:54:07;14.20;99.90
13808;DHT22;40769;51.512;5.494;2023-04-06T09:56:45;14.20;99.90
13808;DHT22;40769;51.512;5.494;2023-04-06T09:59:25;14.10;99.90
13808;DHT22;40769;51.512;5.494;2023-04-06T10:01:56;14.10;99.90
13808;DHT22;40769;51.512;5.494;2023-04-06T10:04:37;14.00;99.90
13808;DHT22;40769;51.512;5.494;2023-04-06T10:07:06;13.90;99.90
13808;DHT22;40769;51.512;5.494;2023-04-06T10:09:33;13.80;99.90
13808;DHT22;40769;51.512;5.494;2023-04-06T10:12:05;13.80;99.90
13808;DHT22;40769;51.512;5.494;2023-04-06T10:14:33;13.60;99.90
13808;DHT22;40769;51.512;5.494;2023-04-06T10:17:01;13.50;99.90
13808;DHT22;40769;51.512;5.494;2023-04-06T10:22:02;13.10;99.90
13808;DHT22;40769;51.512;5.494;2023-04-06T10:24:29;13.00;99.90
13808;DHT22;40769;51.512;5.494;2023-04-06T10:27:02;13.00;99.90
13808;DHT22;40769;51.512;5.494;2023-04-06T10:29:44;12.90;99.90
13808;DHT22;40769;51.512;5.494;2023-04-06T10:32:11;12.80;99.90
13808;DHT22;40769;51.512;5.494;2023-04-06T10:34:36;12.80;99.90
13808;DHT22;40769;51.512;5.494;2023-04-06T10:37:15;12.70;99.90
13808;DHT22;40769;51.512;5.494;2023-04-06T10:39:51;12.70;99.90
13808;DHT22;40769;51.512;5.494;2023-04-06T10:42:24;12.60;99.90
13808;DHT22;40769;51.512;5.494;2023-04-06T10:44:50;12.60;99.90
13808;DHT22;40769;51.512;5.494;2023-04-06T10:47:17;12.70;99.90
13808;DHT22;40769;51.512;5.494;2023-04-06T10:49:45;12.60;99.90
13808;DHT22;40769;51.512;5.494;2023-04-06T10:52:11;12.70;99.90
13808;DHT22;40769;51.512;5.494;2023-04-06T10:54:42;12.60;99.90
13808;DHT22;40769;51.512;5.494;2023-04-06T10:57:09;12.60;99.90
13808;DHT22;40769;51.512;5.494;2023-04-06T10:59:35;12.50;99.90
13808;DHT22;40769;51.512;5.494;2023-04-06T11:02:00;12.40;99.90
13808;DHT22;40769;51.512;5.494;2023-04-06T11:04:26;12.30;99.90
13808;DHT22;40769;51.512;5.494;2023-04-06T11:06:51;12.30;99.90
13808;DHT22;40769;51.512;5.494;2023-04-06T11:09:28;12.20;99.90
13808;DHT22;40769;51.512;5.494;2023-04-06T11:11:54;12.30;99.90
13808;DHT22;40769;51.512;5.494;2023-04-06T11:14:20;12.00;99.90
13808;DHT22;40769;51.512;5.494;2023-04-06T11:16:47;12.00;99.90
13808;DHT22;40769;51.512;5.494;2023-04-06T11:19:16;11.90;99.90
13808;DHT22;40769;51.512;5.494;2023-04-06T11:21:47;11.90;99.90
13808;DHT22;40769;51.512;5.494;2023-04-06T11:26:58;11.70;99.90
13808;DHT22;40769;51.512;5.494;2023-04-06T11:29:28;11.80;99.90
13808;DHT22;40769;51.512;5.494;2023-04-06T11:34:24;11.60;99.90
13808;DHT22;40769;51.512;5.494;2023-04-06T11:37:01;11.60;99.90
13808;DHT22;40769;51.512;5.494;2023-04-06T11:39:29;11.60;99.90
13808;DHT22;40769;51.512;5.494;2023-04-06T11:42:01;11.50;99.90
13808;DHT22;40769;51.512;5.494;2023-04-06T11:47:05;11.50;99.90
13808;DHT22;40769;51.512;5.494;2023-04-06T11:49:33;11.50;99.90
13808;DHT22;40769;51.512;5.494;2023-04-06T11:52:01;11.60;99.90
13808;DHT22;40769;51.512;5.494;2023-04-06T11:54:34;11.60;99.90
13808;DHT22;40769;51.512;5.494;2023-04-06T11:57:01;11.70;99.90
13808;DHT22;40769;51.512;5.494;2023-04-06T11:59:27;11.70;99.90
13808;DHT22;40769;51.512;5.494;2023-04-06T12:01:53;11.80;99.90
13808;DHT22;40769;51.512;5.494;2023-04-06T12:04:20;12.00;99.90
13808;DHT22;40769;51.512;5.494;2023-04-06T12:06:46;12.00;99.90
13808;DHT22;40769;51.512;5.494;2023-04-06T12:09:11;12.00;99.90
13808;DHT22;40769;51.512;5.494;2023-04-06T12:11:37;12.10;99.90
13808;DHT22;40769;51.512;5.494;2023-04-06T12:14:04;12.20;99.90
13808;DHT22;40769;51.512;5.494;2023-04-06T12:16:31;12.20;99.90
13808;DHT22;40769;51.512;5.494;2023-04-06T12:18:57;12.30;99.90
13808;DHT22;40769;51.512;5.494;2023-04-06T12:21:22;12.40;99.90
13808;DHT22;40769;51.512;5.494;2023-04-06T12:23:48;12.30;99.90
13808;DHT22;40769;51.512;5.494;2023-04-06T12:26:13;12.30;99.90
13808;DHT22;40769;51.512;5.494;2023-04-06T12:28:39;12.30;99.90
13808;DHT22;40769;51.512;5.494;2023-04-06T12:31:05;12.30;99.90
13808;DHT22;40769;51.512;5.494;2023-04-06T12:33:30;12.30;99.90
13808;DHT22;40769;51.512;5.494;2023-04-06T12:35:56;12.30;99.90
13808;DHT22;40769;51.512;5.494;2023-04-06T12:38:22;12.20;99.90
13808;DHT22;40769;51.512;5.494;2023-04-06T12:40:47;12.20;99.90
13808;DHT22;40769;51.512;5.494;2023-04-06T12:43:13;12.00;99.90
13808;DHT22;40769;51.512;5.494;2023-04-06T12:45:39;12.10;99.90
13808;DHT22;40769;51.512;5.494;2023-04-06T12:48:06;12.00;99.90
13808;DHT22;40769;51.512;5.494;2023-04-06T12:50:32;12.00;99.90
13808;DHT22;40769;51.512;5.494;2023-04-06T12:52:57;12.00;99.90
13808;DHT22;40769;51.512;5.494;2023-04-06T12:55:23;12.00;99.90
13808;DHT22;40769;51.512;5.494;2023-04-06T12:57:49;11.90;99.90
13808;DHT22;40769;51.512;5.494;2023-04-06T13:00:15;11.80;99.90
13808;DHT22;40769;51.512;5.494;2023-04-06T13:02:41;11.80;99.90
13808;DHT22;40769;51.512;5.494;2023-04-06T13:05:12;11.70;99.90
13808;DHT22;40769;51.512;5.494;2023-04-06T13:07:38;11.70;99.90
13808;DHT22;40769;51.512;5.494;2023-04-06T13:10:04;11.70;99.90
13808;DHT22;40769;51.512;5.494;2023-04-06T13:12:29;11.60;99.90
13808;DHT22;40769;51.512;5.494;2023-04-06T13:14:55;11.60;99.90
13808;DHT22;40769;51.512;5.494;2023-04-06T13:17:22;11.50;99.90
13808;DHT22;40769;51.512;5.494;2023-04-06T13:19:47;11.60;99.90
13808;DHT22;40769;51.512;5.494;2023-04-06T13:22:13;11.60;99.90
13808;DHT22;40769;51.512;5.494;2023-04-06T13:24:38;11.60;99.90
13808;DHT22;40769;51.512;5.494;2023-04-06T13:27:04;11.50;99.90
13808;DHT22;40769;51.512;5.494;2023-04-06T13:29:30;11.40;99.90
13808;DHT22;40769;51.512;5.494;2023-04-06T13:31:56;11.30;99.90
13808;DHT22;40769;51.512;5.494;2023-04-06T13:34:21;11.30;99.90
13808;DHT22;40769;51.512;5.494;2023-04-06T13:36:47;11.30;99.90
13808;DHT22;40769;51.512;5.494;2023-04-06T13:39:13;11.30;99.90
13808;DHT22;40769;51.512;5.494;2023-04-06T13:41:38;11.30;99.90
13808;DHT22;40769;51.512;5.494;2023-04-06T13:44:05;11.30;99.90
13808;DHT22;40769;51.512;5.494;2023-04-06T13:46:31;11.30;99.90
13808;DHT22;40769;51.512;5.494;2023-04-06T13:48:57;11.30;99.90
13808;DHT22;40769;51.512;5.494;2023-04-06T13:51:23;11.20;99.90
13808;DHT22;40769;51.512;5.494;2023-04-06T13:53:48;11.30;99.90
13808;DHT22;40769;51.512;5.494;2023-04-06T13:56:17;11.30;99.90
13808;DHT22;40769;51.512;5.494;2023-04-06T13:58:43;11.30;99.90
13808;DHT22;40769;51.512;5.494;2023-04-06T14:01:09;11.20;99.90
13808;DHT22;40769;51.512;5.494;2023-04-06T14:03:35;11.20;99.90
13808;DHT22;40769;51.512;5.494;2023-04-06T14:06:08;11.10;99.90
13808;DHT22;40769;51.512;5.494;2023-04-06T14:08:34;11.10;99.90
13808;DHT22;40769;51.512;5.494;2023-04-06T14:11:00;11.10;99.90
13808;DHT22;40769;51.512;5.494;2023-04-06T14:13:25;11.00;99.90
13808;DHT22;40769;51.512;5.494;2023-04-06T14:15:54;10.90;99.90
13808;DHT22;40769;51.512;5.494;2023-04-06T14:18:23;10.90;99.90
13808;DHT22;40769;51.512;5.494;2023-04-06T14:20:58;10.90;99.90
13808;DHT22;40769;51.512;5.494;2023-04-06T14:23:27;10.90;99.90
13808;DHT22;40769;51.512;5.494;2023-04-06T14:28:29;10.90;99.90
13808;DHT22;40769;51.512;5.494;2023-04-06T14:30:55;11.20;99.90
13808;DHT22;40769;51.512;5.494;2023-04-06T14:33:21;11.00;99.90
13808;DHT22;40769;51.512;5.494;2023-04-06T14:35:49;10.70;99.90
13808;DHT22;40769;51.512;5.494;2023-04-06T14:38:14;10.90;99.90
13808;DHT22;40769;51.512;5.494;2023-04-06T14:40:40;10.90;99.90
13808;DHT22;40769;51.512;5.494;2023-04-06T14:43:06;10.90;99.90
13808;DHT22;40769;51.512;5.494;2023-04-06T14:45:33;10.90;99.90
13808;DHT22;40769;51.512;5.494;2023-04-06T14:48:00;11.20;99.90
13808;DHT22;40769;51.512;5.494;2023-04-06T14:50:25;10.90;99.90
13808;DHT22;40769;51.512;5.494;2023-04-06T14:52:51;10.90;99.90
13808;DHT22;40769;51.512;5.494;2023-04-06T14:55:17;10.80;99.90
13808;DHT22;40769;51.512;5.494;2023-04-06T14:57:42;10.80;99.90
13808;DHT22;40769;51.512;5.494;2023-04-06T15:00:08;10.80;99.90
13808;DHT22;40769;51.512;5.494;2023-04-06T15:02:34;10.80;99.90
13808;DHT22;40769;51.512;5.494;2023-04-06T15:05:00;10.90;99.90
13808;DHT22;40769;51.512;5.494;2023-04-06T15:07:26;10.80;99.90
13808;DHT22;40769;51.512;5.494;2023-04-06T15:09:51;10.70;99.90
13808;DHT22;40769;51.512;5.494;2023-04-06T15:12:17;10.70;99.90
13808;DHT22;40769;51.512;5.494;2023-04-06T15:14:42;10.70;99.90
13808;DHT22;40769;51.512;5.494;2023-04-06T15:17:09;10.70;99.90
13808;DHT22;40769;51.512;5.494;2023-04-06T15:19:35;10.70;99.90
13808;DHT22;40769;51.512;5.494;2023-04-06T15:22:01;10.70;99.90
13808;DHT22;40769;51.512;5.494;2023-04-06T15:24:27;10.70;99.90
13808;DHT22;40769;51.512;5.494;2023-04-06T15:26:52;10.70;99.90
13808;DHT22;40769;51.512;5.494;2023-04-06T15:29:18;10.70;99.90
13808;DHT22;40769;51.512;5.494;2023-04-06T15:31:43;10.70;99.90
13808;DHT22;40769;51.512;5.494;2023-04-06T15:34:09;10.90;99.90
13808;DHT22;40769;51.512;5.494;2023-04-06T15:36:35;11.10;99.90
13808;DHT22;40769;51.512;5.494;2023-04-06T15:39:01;10.70;99.90
13808;DHT22;40769;51.512;5.494;2023-04-06T15:41:28;10.90;99.90
13808;DHT22;40769;51.512;5.494;2023-04-06T15:43:57;10.80;99.90
13808;DHT22;40769;51.512;5.494;2023-04-06T15:46:22;10.80;99.90